sensor_id;sensor_type;location;lat;lon;timestamp;temperature;humidity
38456;DHT22;24237;50.106;20.014;2024-01-30T00:02:24;2.00;99.90
38456;DHT22;24237;50.106;20.014;2024-01-30T00:04:49;1.90;99.90
38456;DHT22;24237;50.106;20.014;2024-01-30T00:07:15;1.90;99.90
38456;DHT22;24237;50.106;20.014;2024-01-30T00:09:41;1.90;99.90
38456;DHT22;24237;50.106;20.014;2024-01-30T00:12:07;1.90;99.90
38456;DHT22;24237;50.106;20.014;2024-01-30T00:14:32;1.90;99.90
38456;DHT22;24237;50.106;20.014;2024-01-30T00:16:58;1.90;1.00
38456;DHT22;24237;50.106;20.014;2024-01-30T00:19:24;2.00;1.00
38456;DHT22;24237;50.106;20.014;2024-01-30T00:21:49;2.00;1.00
38456;DHT22;24237;50.106;20.014;2024-01-30T00:24:15;2.00;1.00
38456;DHT22;24237;50.106;20.014;2024-01-30T00:26:41;2.00;1.00
38456;DHT22;24237;50.106;20.014;2024-01-30T00:29:06;2.00;1.00
38456;DHT22;24237;50.106;20.014;2024-01-30T00:31:32;2.00;1.00
38456;DHT22;24237;50.106;20.014;2024-01-30T00:33:58;2.00;1.00
38456;DHT22;24237;50.106;20.014;2024-01-30T00:36:23;2.00;1.00
38456;DHT22;24237;50.106;20.014;2024-01-30T00:38:49;2.10;1.00
38456;DHT22;24237;50.106;20.014;2024-01-30T00:41:17;2.10;1.00
38456;DHT22;24237;50.106;20.014;2024-01-30T00:43:43;2.10;1.00
38456;DHT22;24237;50.106;20.014;2024-01-30T00:46:08;2.10;1.00
38456;DHT22;24237;50.106;20.014;2024-01-30T00:48:34;2.10;1.00
38456;DHT22;24237;50.106;20.014;2024-01-30T00:51:00;2.10;1.00
38456;DHT22;24237;50.106;20.014;2024-01-30T00:53:26;2.10;1.00
38456;DHT22;24237;50.106;20.014;2024-01-30T00:55:52;2.10;1.00
38456;DHT22;24237;50.106;20.014;2024-01-30T00:58:17;2.10;1.00
38456;DHT22;24237;50.106;20.014;2024-01-30T01:00:45;2.10;1.00
38456;DHT22;24237;50.106;20.014;2024-01-30T01:03:10;2.10;1.00
38456;DHT22;24237;50.106;20.014;2024-01-30T01:05:36;2.10;1.00
38456;DHT22;24237;50.106;20.014;2024-01-30T01:08:02;2.20;1.00
38456;DHT22;24237;50.106;20.014;2024-01-30T01:10:27;2.20;1.00
38456;DHT22;24237;50.106;20.014;2024-01-30T01:13:13;2.20;1.00
38456;DHT22;24237;50.106;20.014;2024-01-30T01:15:38;2.20;1.00
38456;DHT22;24237;50.106;20.014;2024-01-30T01:18:04;2.20;1.00
38456;DHT22;24237;50.106;20.014;2024-01-30T01:20:30;2.20;1.00
38456;DHT22;24237;50.106;20.014;2024-01-30T01:22:57;2.20;1.00
38456;DHT22;24237;50.106;20.014;2024-01-30T01:25:22;2.20;1.00
38456;DHT22;24237;50.106;20.014;2024-01-30T01:27:48;2.20;1.00
38456;DHT22;24237;50.106;20.014;2024-01-30T01:30:17;2.20;1.00
38456;DHT22;24237;50.106;20.014;2024-01-30T01:32:48;2.20;1.00
38456;DHT22;24237;50.106;20.014;2024-01-30T01:35:23;2.20;1.00
38456;DHT22;24237;50.106;20.014;2024-01-30T01:37:53;2.20;1.00
38456;DHT22;24237;50.106;20.014;2024-01-30T01:40:24;2.20;1.00
38456;DHT22;24237;50.106;20.014;2024-01-30T01:42:53;2.20;1.00
38456;DHT22;24237;50.106;20.014;2024-01-30T01:45:19;2.10;1.00
38456;DHT22;24237;50.106;20.014;2024-01-30T01:47:47;2.10;1.00
38456;DHT22;24237;50.106;20.014;2024-01-30T01:50:15;2.00;99.90
38456;DHT22;24237;50.106;20.014;2024-01-30T01:52:48;1.80;99.90
38456;DHT22;24237;50.106;20.014;2024-01-30T01:55:16;1.70;99.90
38456;DHT22;24237;50.106;20.014;2024-01-30T01:57:44;1.70;99.90
38456;DHT22;24237;50.106;20.014;2024-01-30T02:00:10;1.70;1.00
38456;DHT22;24237;50.106;20.014;2024-01-30T02:02:39;1.80;1.00
38456;DHT22;24237;50.106;20.014;2024-01-30T02:05:05;1.90;1.00
38456;DHT22;24237;50.106;20.014;2024-01-30T02:07:31;1.90;1.00
38456;DHT22;24237;50.106;20.014;2024-01-30T02:10:00;1.90;1.00
38456;DHT22;24237;50.106;20.014;2024-01-30T02:12:25;1.80;1.00
38456;DHT22;24237;50.106;20.014;2024-01-30T02:14:51;1.80;1.00
38456;DHT22;24237;50.106;20.014;2024-01-30T02:17:17;1.70;99.90
38456;DHT22;24237;50.106;20.014;2024-01-30T02:19:42;1.70;99.90
38456;DHT22;24237;50.106;20.014;2024-01-30T02:22:09;1.60;99.90
38456;DHT22;24237;50.106;20.014;2024-01-30T02:24:35;1.40;99.90
38456;DHT22;24237;50.106;20.014;2024-01-30T02:27:00;1.40;99.90
38456;DHT22;24237;50.106;20.014;2024-01-30T02:29:26;1.40;99.90
38456;DHT22;24237;50.106;20.014;2024-01-30T02:31:51;1.40;99.90
38456;DHT22;24237;50.106;20.014;2024-01-30T02:34:18;1.40;99.90
38456;DHT22;24237;50.106;20.014;2024-01-30T02:36:45;1.50;99.90
38456;DHT22;24237;50.106;20.014;2024-01-30T02:39:10;1.50;99.90
38456;DHT22;24237;50.106;20.014;2024-01-30T02:41:36;1.50;99.90
38456;DHT22;24237;50.106;20.014;2024-01-30T02:44:03;1.50;99.90
38456;DHT22;24237;50.106;20.014;2024-01-30T02:46:28;1.40;99.90
38456;DHT22;24237;50.106;20.014;2024-01-30T02:49:14;1.40;99.90
38456;DHT22;24237;50.106;20.014;2024-01-30T02:51:40;1.40;99.90
38456;DHT22;24237;50.106;20.014;2024-01-30T02:54:05;1.40;99.90
38456;DHT22;24237;50.106;20.014;2024-01-30T02:56:31;1.40;99.90
38456;DHT22;24237;50.106;20.014;2024-01-30T02:58:56;1.40;99.90
38456;DHT22;24237;50.106;20.014;2024-01-30T03:01:22;1.30;99.90
38456;DHT22;24237;50.106;20.014;2024-01-30T03:03:50;1.30;99.90
38456;DHT22;24237;50.106;20.014;2024-01-30T03:06:15;1.40;99.90
38456;DHT22;24237;50.106;20.014;2024-01-30T03:08:43;1.60;99.90
38456;DHT22;24237;50.106;20.014;2024-01-30T03:11:08;1.50;99.90
38456;DHT22;24237;50.106;20.014;2024-01-30T03:13:34;1.30;99.90
38456;DHT22;24237;50.106;20.014;2024-01-30T03:15:59;1.30;99.90
38456;DHT22;24237;50.106;20.014;2024-01-30T03:18:25;1.20;99.90
38456;DHT22;24237;50.106;20.014;2024-01-30T03:20:51;1.20;99.90
38456;DHT22;24237;50.106;20.014;2024-01-30T03:23:16;1.20;99.90
38456;DHT22;24237;50.106;20.014;2024-01-30T03:25:42;1.10;99.90
38456;DHT22;24237;50.106;20.014;2024-01-30T03:28:07;1.10;99.90
38456;DHT22;24237;50.106;20.014;2024-01-30T03:30:34;1.30;99.90
38456;DHT22;24237;50.106;20.014;2024-01-30T03:33:00;1.30;99.90
38456;DHT22;24237;50.106;20.014;2024-01-30T03:35:25;1.30;99.90
38456;DHT22;24237;50.106;20.014;2024-01-30T03:37:51;1.30;99.90
38456;DHT22;24237;50.106;20.014;2024-01-30T03:40:16;1.20;99.90
38456;DHT22;24237;50.106;20.014;2024-01-30T03:42:42;1.10;99.90
38456;DHT22;24237;50.106;20.014;2024-01-30T03:45:08;1.20;99.90
38456;DHT22;24237;50.106;20.014;2024-01-30T03:47:34;1.20;99.90
38456;DHT22;24237;50.106;20.014;2024-01-30T03:49:59;1.20;99.90
38456;DHT22;24237;50.106;20.014;2024-01-30T03:52:25;1.20;99.90
38456;DHT22;24237;50.106;20.014;2024-01-30T03:54:50;1.20;99.90
38456;DHT22;24237;50.106;20.014;2024-01-30T03:57:16;1.20;99.90
38456;DHT22;24237;50.106;20.014;2024-01-30T03:59:42;1.20;99.90
38456;DHT22;24237;50.106;20.014;2024-01-30T04:02:09;1.10;99.90
38456;DHT22;24237;50.106;20.014;2024-01-30T04:04:35;1.10;99.90
38456;DHT22;24237;50.106;20.014;2024-01-30T04:07:00;1.00;99.90
38456;DHT22;24237;50.106;20.014;2024-01-30T04:09:26;1.00;99.90
38456;DHT22;24237;50.106;20.014;2024-01-30T04:11:53;1.00;99.90
38456;DHT22;24237;50.106;20.014;2024-01-30T04:14:19;1.00;99.90
38456;DHT22;24237;50.106;20.014;2024-01-30T04:16:45;1.10;99.90
38456;DHT22;24237;50.106;20.014;2024-01-30T04:19:10;1.10;99.90
38456;DHT22;24237;50.106;20.014;2024-01-30T04:21:36;1.10;99.90
38456;DHT22;24237;50.106;20.014;2024-01-30T04:24:02;1.10;99.90
38456;DHT22;24237;50.106;20.014;2024-01-30T04:26:27;1.10;99.90
38456;DHT22;24237;50.106;20.014;2024-01-30T04:28:53;1.10;99.90
38456;DHT22;24237;50.106;20.014;2024-01-30T04:31:19;1.20;99.90
38456;DHT22;24237;50.106;20.014;2024-01-30T04:33:45;1.20;99.90
38456;DHT22;24237;50.106;20.014;2024-01-30T04:36:10;1.20;99.90
38456;DHT22;24237;50.106;20.014;2024-01-30T04:38:37;1.20;99.90
38456;DHT22;24237;50.106;20.014;2024-01-30T04:41:03;1.20;99.90
38456;DHT22;24237;50.106;20.014;2024-01-30T04:43:29;1.20;99.90
38456;DHT22;24237;50.106;20.014;2024-01-30T04:45:55;1.30;99.90
38456;DHT22;24237;50.106;20.014;2024-01-30T04:48:21;1.30;99.90
38456;DHT22;24237;50.106;20.014;2024-01-30T04:50:46;1.20;99.90
38456;DHT22;24237;50.106;20.014;2024-01-30T04:53:12;1.20;99.90
38456;DHT22;24237;50.106;20.014;2024-01-30T04:55:38;1.10;99.90
38456;DHT22;24237;50.106;20.014;2024-01-30T04:58:03;1.10;99.90
38456;DHT22;24237;50.106;20.014;2024-01-30T05:00:29;1.00;99.90
38456;DHT22;24237;50.106;20.014;2024-01-30T05:02:55;1.10;99.90
38456;DHT22;24237;50.106;20.014;2024-01-30T05:05:21;1.20;99.90
38456;DHT22;24237;50.106;20.014;2024-01-30T05:07:47;1.20;99.90
38456;DHT22;24237;50.106;20.014;2024-01-30T05:10:13;1.10;99.90
38456;DHT22;24237;50.106;20.014;2024-01-30T05:12:39;1.00;99.90
38456;DHT22;24237;50.106;20.014;2024-01-30T05:15:05;0.90;99.90
38456;DHT22;24237;50.106;20.014;2024-01-30T05:17:31;0.80;99.90
38456;DHT22;24237;50.106;20.014;2024-01-30T05:19:57;0.80;99.90
38456;DHT22;24237;50.106;20.014;2024-01-30T05:22:23;0.70;99.90
38456;DHT22;24237;50.106;20.014;2024-01-30T05:24:48;0.80;99.90
38456;DHT22;24237;50.106;20.014;2024-01-30T05:27:14;0.70;99.90
38456;DHT22;24237;50.106;20.014;2024-01-30T05:29:40;0.70;99.90
38456;DHT22;24237;50.106;20.014;2024-01-30T05:32:06;0.60;99.90
38456;DHT22;24237;50.106;20.014;2024-01-30T05:34:32;0.60;99.90
38456;DHT22;24237;50.106;20.014;2024-01-30T05:36:58;0.60;99.90
38456;DHT22;24237;50.106;20.014;2024-01-30T05:39:24;0.50;99.90
38456;DHT22;24237;50.106;20.014;2024-01-30T05:41:49;0.50;99.90
38456;DHT22;24237;50.106;20.014;2024-01-30T05:44:15;0.50;99.90
38456;DHT22;24237;50.106;20.014;2024-01-30T05:46:41;0.50;99.90
38456;DHT22;24237;50.106;20.014;2024-01-30T05:49:07;0.50;99.90
38456;DHT22;24237;50.106;20.014;2024-01-30T05:51:33;0.30;99.90
38456;DHT22;24237;50.106;20.014;2024-01-30T05:53:58;0.40;99.90
38456;DHT22;24237;50.106;20.014;2024-01-30T05:56:24;0.40;99.90
38456;DHT22;24237;50.106;20.014;2024-01-30T05:58:50;0.40;99.90
38456;DHT22;24237;50.106;20.014;2024-01-30T06:01:16;0.40;99.90
38456;DHT22;24237;50.106;20.014;2024-01-30T06:03:42;0.40;99.90
38456;DHT22;24237;50.106;20.014;2024-01-30T06:06:09;0.50;99.90
38456;DHT22;24237;50.106;20.014;2024-01-30T06:08:34;0.50;99.90
38456;DHT22;24237;50.106;20.014;2024-01-30T06:11:00;0.60;99.90
38456;DHT22;24237;50.106;20.014;2024-01-30T06:13:26;0.60;99.90
38456;DHT22;24237;50.106;20.014;2024-01-30T06:15:52;1.10;99.90
38456;DHT22;24237;50.106;20.014;2024-01-30T06:18:18;1.10;26.20
38456;DHT22;24237;50.106;20.014;2024-01-30T06:20:44;1.10;94.00
38456;DHT22;24237;50.106;20.014;2024-01-30T06:23:09;1.10;44.20
38456;DHT22;24237;50.106;20.014;2024-01-30T06:25:35;1.10;26.00
38456;DHT22;24237;50.106;20.014;2024-01-30T06:28:01;1.00;99.90
38456;DHT22;24237;50.106;20.014;2024-01-30T06:30:27;1.20;50.40
38456;DHT22;24237;50.106;20.014;2024-01-30T06:32:52;1.10;1.00
38456;DHT22;24237;50.106;20.014;2024-01-30T06:35:18;1.00;1.00
38456;DHT22;24237;50.106;20.014;2024-01-30T06:37:44;0.90;18.90
38456;DHT22;24237;50.106;20.014;2024-01-30T06:40:10;0.90;97.80
38456;DHT22;24237;50.106;20.014;2024-01-30T06:42:35;1.20;81.00
38456;DHT22;24237;50.106;20.014;2024-01-30T06:45:01;1.10;1.00
38456;DHT22;24237;50.106;20.014;2024-01-30T06:47:27;1.10;1.00
38456;DHT22;24237;50.106;20.014;2024-01-30T06:49:54;1.00;1.00
38456;DHT22;24237;50.106;20.014;2024-01-30T06:52:19;1.00;1.00
38456;DHT22;24237;50.106;20.014;2024-01-30T06:54:45;1.00;1.00
38456;DHT22;24237;50.106;20.014;2024-01-30T06:57:11;1.10;1.00
38456;DHT22;24237;50.106;20.014;2024-01-30T06:59:37;1.50;99.90
38456;DHT22;24237;50.106;20.014;2024-01-30T07:02:09;1.80;99.90
38456;DHT22;24237;50.106;20.014;2024-01-30T07:04:35;1.70;99.90
38456;DHT22;24237;50.106;20.014;2024-01-30T07:07:03;1.80;1.00
38456;DHT22;24237;50.106;20.014;2024-01-30T07:09:30;1.70;99.90
38456;DHT22;24237;50.106;20.014;2024-01-30T07:11:56;2.10;99.90
38456;DHT22;24237;50.106;20.014;2024-01-30T07:14:24;2.10;97.40
38456;DHT22;24237;50.106;20.014;2024-01-30T07:16:49;2.00;1.00
38456;DHT22;24237;50.106;20.014;2024-01-30T07:19:16;1.90;99.90
38456;DHT22;24237;50.106;20.014;2024-01-30T07:21:41;2.00;99.90
38456;DHT22;24237;50.106;20.014;2024-01-30T07:24:07;2.10;99.90
38456;DHT22;24237;50.106;20.014;2024-01-30T07:26:33;2.20;61.10
38456;DHT22;24237;50.106;20.014;2024-01-30T07:28:59;2.30;99.90
38456;DHT22;24237;50.106;20.014;2024-01-30T07:31:24;2.30;99.90
38456;DHT22;24237;50.106;20.014;2024-01-30T07:33:50;2.40;99.90
38456;DHT22;24237;50.106;20.014;2024-01-30T07:36:15;2.60;99.90
38456;DHT22;24237;50.106;20.014;2024-01-30T07:38:41;2.70;99.90
38456;DHT22;24237;50.106;20.014;2024-01-30T07:41:07;2.70;73.00
38456;DHT22;24237;50.106;20.014;2024-01-30T07:43:34;2.90;1.00
38456;DHT22;24237;50.106;20.014;2024-01-30T07:45:59;2.90;1.00
38456;DHT22;24237;50.106;20.014;2024-01-30T07:48:27;3.00;1.00
38456;DHT22;24237;50.106;20.014;2024-01-30T07:50:52;3.10;1.00
38456;DHT22;24237;50.106;20.014;2024-01-30T07:53:18;3.30;99.90
38456;DHT22;24237;50.106;20.014;2024-01-30T07:55:44;3.20;99.90
38456;DHT22;24237;50.106;20.014;2024-01-30T07:58:12;3.20;99.90
38456;DHT22;24237;50.106;20.014;2024-01-30T08:00:37;3.40;99.90
38456;DHT22;24237;50.106;20.014;2024-01-30T08:03:04;3.40;99.90
38456;DHT22;24237;50.106;20.014;2024-01-30T08:05:30;3.50;99.90
38456;DHT22;24237;50.106;20.014;2024-01-30T08:07:56;3.70;1.00
38456;DHT22;24237;50.106;20.014;2024-01-30T08:10:21;3.70;1.00
38456;DHT22;24237;50.106;20.014;2024-01-30T08:12:47;3.80;84.20
38456;DHT22;24237;50.106;20.014;2024-01-30T08:15:13;3.80;1.00
38456;DHT22;24237;50.106;20.014;2024-01-30T08:17:39;3.90;1.00
38456;DHT22;24237;50.106;20.014;2024-01-30T08:20:05;3.90;82.60
38456;DHT22;24237;50.106;20.014;2024-01-30T08:22:31;4.10;1.00
38456;DHT22;24237;50.106;20.014;2024-01-30T08:24:56;4.10;99.90
38456;DHT22;24237;50.106;20.014;2024-01-30T08:27:22;4.30;99.90
38456;DHT22;24237;50.106;20.014;2024-01-30T08:29:48;4.30;99.90
38456;DHT22;24237;50.106;20.014;2024-01-30T08:32:13;4.30;99.90
38456;DHT22;24237;50.106;20.014;2024-01-30T08:34:39;4.40;99.90
38456;DHT22;24237;50.106;20.014;2024-01-30T08:37:05;4.40;99.90
38456;DHT22;24237;50.106;20.014;2024-01-30T08:39:30;4.50;99.90
38456;DHT22;24237;50.106;20.014;2024-01-30T08:41:56;4.70;99.90
38456;DHT22;24237;50.106;20.014;2024-01-30T08:44:22;4.60;99.90
38456;DHT22;24237;50.106;20.014;2024-01-30T08:46:47;4.80;1.00
38456;DHT22;24237;50.106;20.014;2024-01-30T08:49:16;4.70;99.90
38456;DHT22;24237;50.106;20.014;2024-01-30T08:51:42;4.70;99.90
38456;DHT22;24237;50.106;20.014;2024-01-30T08:54:07;4.70;99.90
38456;DHT22;24237;50.106;20.014;2024-01-30T08:56:33;4.80;62.70
38456;DHT22;24237;50.106;20.014;2024-01-30T08:58:59;4.90;38.40
38456;DHT22;24237;50.106;20.014;2024-01-30T09:01:25;4.90;1.00
38456;DHT22;24237;50.106;20.014;2024-01-30T09:03:51;5.10;1.00
38456;DHT22;24237;50.106;20.014;2024-01-30T09:06:16;5.10;1.00
38456;DHT22;24237;50.106;20.014;2024-01-30T09:08:42;5.00;1.00
38456;DHT22;24237;50.106;20.014;2024-01-30T09:11:12;5.30;1.00
38456;DHT22;24237;50.106;20.014;2024-01-30T09:13:38;5.30;1.00
38456;DHT22;24237;50.106;20.014;2024-01-30T09:16:04;5.30;1.00
38456;DHT22;24237;50.106;20.014;2024-01-30T09:18:30;5.40;1.00
38456;DHT22;24237;50.106;20.014;2024-01-30T09:20:56;5.40;1.00
38456;DHT22;24237;50.106;20.014;2024-01-30T09:23:22;5.40;1.00
38456;DHT22;24237;50.106;20.014;2024-01-30T09:25:47;5.60;1.00
38456;DHT22;24237;50.106;20.014;2024-01-30T09:28:13;5.60;99.90
38456;DHT22;24237;50.106;20.014;2024-01-30T09:30:39;5.70;99.90
38456;DHT22;24237;50.106;20.014;2024-01-30T09:33:06;5.80;99.90
38456;DHT22;24237;50.106;20.014;2024-01-30T09:35:31;5.80;99.90
38456;DHT22;24237;50.106;20.014;2024-01-30T09:37:57;6.00;46.00
38456;DHT22;24237;50.106;20.014;2024-01-30T09:40:24;6.00;1.00
38456;DHT22;24237;50.106;20.014;2024-01-30T09:42:52;6.00;99.90
38456;DHT22;24237;50.106;20.014;2024-01-30T09:45:19;6.10;99.90
38456;DHT22;24237;50.106;20.014;2024-01-30T09:47:46;6.30;99.90
38456;DHT22;24237;50.106;20.014;2024-01-30T09:50:13;6.40;99.90
38456;DHT22;24237;50.106;20.014;2024-01-30T09:52:39;6.30;1.00
38456;DHT22;24237;50.106;20.014;2024-01-30T09:55:06;6.30;1.00
38456;DHT22;24237;50.106;20.014;2024-01-30T09:57:33;6.40;1.00
38456;DHT22;24237;50.106;20.014;2024-01-30T09:59:59;6.40;1.00
38456;DHT22;24237;50.106;20.014;2024-01-30T10:02:25;6.50;1.00
38456;DHT22;24237;50.106;20.014;2024-01-30T10:04:51;6.70;1.00
38456;DHT22;24237;50.106;20.014;2024-01-30T10:07:18;6.70;99.90
38456;DHT22;24237;50.106;20.014;2024-01-30T10:09:44;6.70;99.90
38456;DHT22;24237;50.106;20.014;2024-01-30T10:12:10;6.80;99.90
38456;DHT22;24237;50.106;20.014;2024-01-30T10:14:44;6.80;99.90
38456;DHT22;24237;50.106;20.014;2024-01-30T10:17:11;6.90;99.90
38456;DHT22;24237;50.106;20.014;2024-01-30T10:19:40;6.90;99.90
38456;DHT22;24237;50.106;20.014;2024-01-30T10:22:07;7.10;97.70
38456;DHT22;24237;50.106;20.014;2024-01-30T10:24:36;7.40;1.00
38456;DHT22;24237;50.106;20.014;2024-01-30T10:27:02;7.40;1.00
38456;DHT22;24237;50.106;20.014;2024-01-30T10:29:28;7.60;1.00
38456;DHT22;24237;50.106;20.014;2024-01-30T10:32:01;7.80;99.90
38456;DHT22;24237;50.106;20.014;2024-01-30T10:34:27;7.80;99.90
38456;DHT22;24237;50.106;20.014;2024-01-30T10:37:11;7.80;99.90
38456;DHT22;24237;50.106;20.014;2024-01-30T10:39:44;7.70;99.90
38456;DHT22;24237;50.106;20.014;2024-01-30T10:42:15;7.70;99.90
38456;DHT22;24237;50.106;20.014;2024-01-30T10:45:11;7.80;99.90
38456;DHT22;24237;50.106;20.014;2024-01-30T10:47:48;7.90;99.90
38456;DHT22;24237;50.106;20.014;2024-01-30T10:50:14;8.10;99.90
38456;DHT22;24237;50.106;20.014;2024-01-30T10:52:41;8.30;99.90
38456;DHT22;24237;50.106;20.014;2024-01-30T10:55:10;8.40;99.90
38456;DHT22;24237;50.106;20.014;2024-01-30T10:57:36;8.60;99.90
38456;DHT22;24237;50.106;20.014;2024-01-30T11:00:06;8.90;1.00
38456;DHT22;24237;50.106;20.014;2024-01-30T11:02:41;9.10;1.00
38456;DHT22;24237;50.106;20.014;2024-01-30T11:05:09;9.40;1.00
38456;DHT22;24237;50.106;20.014;2024-01-30T11:07:35;9.60;99.90
38456;DHT22;24237;50.106;20.014;2024-01-30T11:10:04;9.70;99.90
38456;DHT22;24237;50.106;20.014;2024-01-30T11:12:31;9.90;99.90
38456;DHT22;24237;50.106;20.014;2024-01-30T11:15:06;10.10;99.90
38456;DHT22;24237;50.106;20.014;2024-01-30T11:17:53;10.30;99.90
38456;DHT22;24237;50.106;20.014;2024-01-30T11:20:25;10.40;99.90
38456;DHT22;24237;50.106;20.014;2024-01-30T11:22:53;10.60;99.90
38456;DHT22;24237;50.106;20.014;2024-01-30T11:25:23;10.60;99.90
38456;DHT22;24237;50.106;20.014;2024-01-30T11:27:55;10.40;99.90
38456;DHT22;24237;50.106;20.014;2024-01-30T11:30:22;10.40;99.90
38456;DHT22;24237;50.106;20.014;2024-01-30T11:33:29;10.80;99.90
38456;DHT22;24237;50.106;20.014;2024-01-30T11:35:58;11.10;99.90
38456;DHT22;24237;50.106;20.014;2024-01-30T11:38:27;11.30;99.90
38456;DHT22;24237;50.106;20.014;2024-01-30T11:40:56;11.40;99.90
38456;DHT22;24237;50.106;20.014;2024-01-30T11:43:23;11.80;99.90
38456;DHT22;24237;50.106;20.014;2024-01-30T11:45:49;11.70;99.90
38456;DHT22;24237;50.106;20.014;2024-01-30T11:48:15;11.90;99.90
38456;DHT22;24237;50.106;20.014;2024-01-30T11:50:41;12.10;99.90
38456;DHT22;24237;50.106;20.014;2024-01-30T11:53:07;12.00;93.40
38456;DHT22;24237;50.106;20.014;2024-01-30T11:55:33;12.10;37.70
38456;DHT22;24237;50.106;20.014;2024-01-30T11:57:58;12.20;34.70
38456;DHT22;24237;50.106;20.014;2024-01-30T12:00:25;12.80;4.80
38456;DHT22;24237;50.106;20.014;2024-01-30T12:02:52;14.00;1.00
38456;DHT22;24237;50.106;20.014;2024-01-30T12:05:21;15.20;1.00
38456;DHT22;24237;50.106;20.014;2024-01-30T12:07:47;16.40;99.90
38456;DHT22;24237;50.106;20.014;2024-01-30T12:10:13;17.40;1.00
38456;DHT22;24237;50.106;20.014;2024-01-30T12:12:45;18.40;99.90
38456;DHT22;24237;50.106;20.014;2024-01-30T12:15:11;19.00;72.90
38456;DHT22;24237;50.106;20.014;2024-01-30T12:17:37;19.40;99.90
38456;DHT22;24237;50.106;20.014;2024-01-30T12:22:39;19.90;99.90
38456;DHT22;24237;50.106;20.014;2024-01-30T12:25:11;19.70;95.80
38456;DHT22;24237;50.106;20.014;2024-01-30T12:27:38;19.60;1.00
38456;DHT22;24237;50.106;20.014;2024-01-30T12:30:11;19.50;99.90
38456;DHT22;24237;50.106;20.014;2024-01-30T12:32:43;19.40;99.90
38456;DHT22;24237;50.106;20.014;2024-01-30T12:35:16;19.90;99.90
38456;DHT22;24237;50.106;20.014;2024-01-30T12:37:47;20.60;1.00
38456;DHT22;24237;50.106;20.014;2024-01-30T12:40:14;20.30;1.00
38456;DHT22;24237;50.106;20.014;2024-01-30T12:42:45;21.20;99.90
38456;DHT22;24237;50.106;20.014;2024-01-30T12:45:14;21.60;99.90
38456;DHT22;24237;50.106;20.014;2024-01-30T12:47:41;21.00;99.90
38456;DHT22;24237;50.106;20.014;2024-01-30T12:50:07;20.90;99.90
38456;DHT22;24237;50.106;20.014;2024-01-30T12:52:35;21.00;99.90
38456;DHT22;24237;50.106;20.014;2024-01-30T12:55:01;21.40;99.90
38456;DHT22;24237;50.106;20.014;2024-01-30T12:57:26;21.60;1.00
38456;DHT22;24237;50.106;20.014;2024-01-30T12:59:52;21.60;1.00
38456;DHT22;24237;50.106;20.014;2024-01-30T13:02:18;21.40;99.90
38456;DHT22;24237;50.106;20.014;2024-01-30T13:04:43;21.60;99.90
38456;DHT22;24237;50.106;20.014;2024-01-30T13:07:09;21.10;99.90
38456;DHT22;24237;50.106;20.014;2024-01-30T13:09:36;20.70;99.90
38456;DHT22;24237;50.106;20.014;2024-01-30T13:12:02;19.90;99.90
38456;DHT22;24237;50.106;20.014;2024-01-30T13:14:27;18.80;99.90
38456;DHT22;24237;50.106;20.014;2024-01-30T13:16:53;17.80;99.90
38456;DHT22;24237;50.106;20.014;2024-01-30T13:19:19;16.50;91.20
38456;DHT22;24237;50.106;20.014;2024-01-30T13:21:44;15.50;99.90
38456;DHT22;24237;50.106;20.014;2024-01-30T13:24:10;15.00;84.00
38456;DHT22;24237;50.106;20.014;2024-01-30T13:26:36;15.20;18.00
38456;DHT22;24237;50.106;20.014;2024-01-30T13:29:02;15.90;99.90
38456;DHT22;24237;50.106;20.014;2024-01-30T13:31:29;16.80;87.30
38456;DHT22;24237;50.106;20.014;2024-01-30T13:33:55;17.20;99.90
38456;DHT22;24237;50.106;20.014;2024-01-30T13:36:21;18.10;99.90
38456;DHT22;24237;50.106;20.014;2024-01-30T13:38:47;18.30;99.90
38456;DHT22;24237;50.106;20.014;2024-01-30T13:41:13;18.80;99.90
38456;DHT22;24237;50.106;20.014;2024-01-30T13:43:38;19.20;99.90
38456;DHT22;24237;50.106;20.014;2024-01-30T13:46:04;19.60;99.90
38456;DHT22;24237;50.106;20.014;2024-01-30T13:48:31;19.50;99.90
38456;DHT22;24237;50.106;20.014;2024-01-30T13:50:57;19.70;99.90
38456;DHT22;24237;50.106;20.014;2024-01-30T13:53:22;19.70;99.90
38456;DHT22;24237;50.106;20.014;2024-01-30T13:55:48;19.50;99.90
38456;DHT22;24237;50.106;20.014;2024-01-30T13:58:14;19.30;99.90
38456;DHT22;24237;50.106;20.014;2024-01-30T14:00:40;18.60;99.90
38456;DHT22;24237;50.106;20.014;2024-01-30T14:03:05;18.10;99.90
38456;DHT22;24237;50.106;20.014;2024-01-30T14:05:31;17.40;99.90
38456;DHT22;24237;50.106;20.014;2024-01-30T14:07:57;17.60;99.90
38456;DHT22;24237;50.106;20.014;2024-01-30T14:10:23;17.40;99.90
38456;DHT22;24237;50.106;20.014;2024-01-30T14:12:49;17.80;99.90
38456;DHT22;24237;50.106;20.014;2024-01-30T14:15:15;18.00;99.90
38456;DHT22;24237;50.106;20.014;2024-01-30T14:17:44;18.10;99.90
38456;DHT22;24237;50.106;20.014;2024-01-30T14:20:10;18.10;99.90
38456;DHT22;24237;50.106;20.014;2024-01-30T14:22:36;16.90;99.90
38456;DHT22;24237;50.106;20.014;2024-01-30T14:25:02;16.00;99.90
38456;DHT22;24237;50.106;20.014;2024-01-30T14:27:32;15.00;99.90
38456;DHT22;24237;50.106;20.014;2024-01-30T14:29:58;14.20;99.90
38456;DHT22;24237;50.106;20.014;2024-01-30T14:32:24;13.60;99.90
38456;DHT22;24237;50.106;20.014;2024-01-30T14:34:51;13.00;99.90
38456;DHT22;24237;50.106;20.014;2024-01-30T14:37:18;12.50;99.90
38456;DHT22;24237;50.106;20.014;2024-01-30T14:39:43;12.10;99.90
38456;DHT22;24237;50.106;20.014;2024-01-30T14:42:09;11.80;1.00
38456;DHT22;24237;50.106;20.014;2024-01-30T14:44:35;11.50;1.00
38456;DHT22;24237;50.106;20.014;2024-01-30T14:47:01;11.20;1.00
38456;DHT22;24237;50.106;20.014;2024-01-30T14:49:27;11.00;1.00
38456;DHT22;24237;50.106;20.014;2024-01-30T14:51:53;10.70;1.00
38456;DHT22;24237;50.106;20.014;2024-01-30T14:54:18;10.50;1.00
38456;DHT22;24237;50.106;20.014;2024-01-30T14:56:44;10.40;1.00
38456;DHT22;24237;50.106;20.014;2024-01-30T14:59:10;10.30;1.00
38456;DHT22;24237;50.106;20.014;2024-01-30T15:01:36;10.10;1.00
38456;DHT22;24237;50.106;20.014;2024-01-30T15:04:02;10.00;1.00
38456;DHT22;24237;50.106;20.014;2024-01-30T15:06:28;9.90;1.00
38456;DHT22;24237;50.106;20.014;2024-01-30T15:08:54;9.80;22.50
38456;DHT22;24237;50.106;20.014;2024-01-30T15:11:19;9.70;8.50
38456;DHT22;24237;50.106;20.014;2024-01-30T15:13:45;9.50;30.00
38456;DHT22;24237;50.106;20.014;2024-01-30T15:16:11;9.40;53.10
38456;DHT22;24237;50.106;20.014;2024-01-30T15:18:37;9.30;62.10
38456;DHT22;24237;50.106;20.014;2024-01-30T15:21:02;9.20;86.80
38456;DHT22;24237;50.106;20.014;2024-01-30T15:23:28;9.10;99.30
38456;DHT22;24237;50.106;20.014;2024-01-30T15:25:54;9.00;99.90
38456;DHT22;24237;50.106;20.014;2024-01-30T15:28:33;8.90;99.90
38456;DHT22;24237;50.106;20.014;2024-01-30T15:30:59;8.80;99.90
38456;DHT22;24237;50.106;20.014;2024-01-30T15:33:25;8.70;99.90